createdAt,value
2017-11-01T00:01:44.168Z,98.40
2017-11-01T00:04:11.871Z,99.00
2017-11-01T00:06:39.375Z,98.50
2017-11-01T00:09:07.628Z,99.20
2017-11-01T00:11:35.111Z,99.10
2017-11-01T00:14:03.368Z,99.20
2017-11-01T00:16:31.315Z,99.20
2017-11-01T00:19:00.503Z,99.10
2017-11-01T00:21:28.972Z,99.10
2017-11-01T00:23:56.605Z,99.40
2017-11-01T00:26:24.972Z,98.90
2017-11-01T00:28:54.402Z,99.30
2017-11-01T00:31:22.037Z,99.30
2017-11-01T00:33:50.573Z,99.60
2017-11-01T00:36:18.079Z,99.50
2017-11-01T00:38:46.443Z,98.90
2017-11-01T00:41:15.125Z,98.90
2017-11-01T00:43:42.755Z,98.90
2017-11-01T00:46:10.272Z,98.40
2017-11-01T00:48:38.645Z,99.00
2017-11-01T00:51:06.273Z,98.90
2017-11-01T00:53:33.856Z,99.60
2017-11-01T00:56:01.352Z,99.90
2017-11-01T00:58:28.841Z,99.90
2017-11-01T01:00:56.322Z,99.80
2017-11-01T01:03:23.802Z,99.90
2017-11-01T01:05:51.290Z,99.90
2017-11-01T01:08:18.777Z,99.20
2017-11-01T01:10:46.259Z,99.90
2017-11-01T01:13:13.849Z,99.90
2017-11-01T01:15:42.099Z,99.90
2017-11-01T01:18:09.586Z,99.90
2017-11-01T01:20:37.835Z,99.90
2017-11-01T01:23:05.315Z,99.90
2017-11-01T01:25:33.568Z,99.60
2017-11-01T01:28:01.058Z,99.40
2017-11-01T01:30:29.315Z,94.30
2017-11-01T01:32:56.804Z,94.30
2017-11-01T01:35:25.050Z,96.70
2017-11-01T01:37:52.522Z,96.70
2017-11-01T01:40:20.773Z,99.90
2017-11-01T01:42:48.273Z,99.70
2017-11-01T01:45:16.530Z,99.90
2017-11-01T01:47:44.010Z,99.90
2017-11-01T01:50:12.250Z,99.90
2017-11-01T01:52:39.741Z,99.90
2017-11-01T01:55:08.004Z,99.90
2017-11-01T01:57:36.337Z,99.90
2017-11-01T02:00:03.822Z,99.90
2017-11-01T02:02:31.362Z,99.90
2017-11-01T02:04:58.859Z,99.80
2017-11-01T02:07:26.349Z,99.90
2017-11-01T02:09:53.821Z,99.90
2017-11-01T02:12:21.301Z,99.90
2017-11-01T02:14:48.783Z,99.90
2017-11-01T02:17:16.268Z,99.90
2017-11-01T02:19:44.537Z,99.90
2017-11-01T02:22:12.793Z,99.90
2017-11-01T02:24:40.290Z,99.90
2017-11-01T02:27:08.534Z,99.00
2017-11-01T02:29:36.018Z,99.00
2017-11-01T02:32:04.258Z,99.40
2017-11-01T02:34:31.734Z,99.40
2017-11-01T02:36:59.215Z,99.40
2017-11-01T02:39:27.483Z,99.90
2017-11-01T02:41:55.753Z,99.90
2017-11-01T02:44:24.011Z,99.90
2017-11-01T02:46:51.490Z,99.90
2017-11-01T02:49:19.750Z,99.90
2017-11-01T02:51:47.237Z,99.90
2017-11-01T02:54:15.507Z,99.90
2017-11-01T02:56:43.778Z,99.90
2017-11-01T02:59:11.279Z,99.90
2017-11-01T03:01:38.767Z,99.90
2017-11-01T03:04:06.250Z,99.90
2017-11-01T03:06:33.738Z,99.90
2017-11-01T03:09:01.223Z,99.90
2017-11-01T03:11:28.732Z,99.90
2017-11-01T03:13:56.228Z,99.90
2017-11-01T03:16:23.724Z,99.90
2017-11-01T03:18:51.984Z,99.90
2017-11-01T03:21:19.466Z,99.90
2017-11-01T03:23:46.969Z,99.90
2017-11-01T03:26:14.454Z,99.90
2017-11-01T03:28:41.935Z,99.90
2017-11-01T03:31:09.423Z,99.90
2017-11-01T03:33:37.690Z,99.90
2017-11-01T03:36:05.175Z,99.90
2017-11-01T03:41:16.236Z,99.90
2017-11-01T03:43:43.717Z,99.90
2017-11-01T03:46:11.973Z,99.90
2017-11-01T03:48:39.458Z,99.90
2017-11-01T03:51:07.703Z,99.50
2017-11-01T03:53:35.188Z,99.50
2017-11-01T03:56:03.446Z,99.90
2017-11-01T03:58:30.928Z,99.90
2017-11-01T04:00:59.178Z,99.90
2017-11-01T04:03:26.663Z,99.90
2017-11-01T04:05:54.915Z,99.90
2017-11-01T04:08:22.387Z,99.90
2017-11-01T04:10:49.877Z,99.90
2017-11-01T04:13:17.421Z,99.90
2017-11-01T04:15:45.661Z,99.90
2017-11-01T04:18:18.875Z,99.90
2017-11-01T04:20:49.313Z,99.90
2017-11-01T04:23:17.564Z,99.90
2017-11-01T04:25:45.050Z,99.90
2017-11-01T04:28:13.306Z,99.90
2017-11-01T04:30:40.791Z,99.90
2017-11-01T04:33:09.063Z,99.90
2017-11-01T04:35:37.310Z,99.90
2017-11-01T04:38:04.799Z,99.90
2017-11-01T04:40:33.061Z,99.90
2017-11-01T04:43:00.554Z,99.90
2017-11-01T04:45:28.043Z,99.90
2017-11-01T04:47:55.521Z,99.90
2017-11-01T04:50:23.091Z,99.90
2017-11-01T04:52:50.594Z,99.90
2017-11-01T04:55:18.091Z,99.90
2017-11-01T04:57:45.587Z,99.90
2017-11-01T05:00:19.460Z,99.90
2017-11-01T05:02:46.958Z,99.90
2017-11-01T05:05:15.207Z,99.90
2017-11-01T05:07:42.727Z,99.90
2017-11-01T05:10:16.252Z,99.90
2017-11-01T05:12:44.784Z,99.90
2017-11-01T05:15:13.075Z,99.90
2017-11-01T05:17:40.592Z,99.90
2017-11-01T05:20:08.093Z,99.90
2017-11-01T05:22:35.588Z,99.90
2017-11-01T05:25:03.100Z,99.90
2017-11-01T05:27:31.374Z,99.90
2017-11-01T05:29:59.631Z,99.90
2017-11-01T05:32:27.106Z,99.90
2017-11-01T05:34:55.347Z,99.90
2017-11-01T05:37:22.829Z,99.90
2017-11-01T05:39:50.327Z,99.90
2017-11-01T05:42:17.830Z,99.90
2017-11-01T05:44:45.313Z,99.90
2017-11-01T05:47:13.563Z,99.90
2017-11-01T05:49:41.052Z,99.90
2017-11-01T05:52:09.294Z,99.90
2017-11-01T05:54:36.775Z,99.90
2017-11-01T05:57:04.250Z,99.90
2017-11-01T05:59:32.499Z,99.90
2017-11-01T06:01:59.975Z,99.90
2017-11-01T06:04:27.453Z,99.90
2017-11-01T06:06:55.710Z,99.90
2017-11-01T06:09:23.203Z,99.90
2017-11-01T06:11:50.686Z,99.90
2017-11-01T06:14:18.165Z,99.90
2017-11-01T06:16:45.641Z,99.90
2017-11-01T06:19:13.114Z,99.90
2017-11-01T06:21:41.363Z,99.90
2017-11-01T06:24:08.853Z,99.90
2017-11-01T06:26:37.104Z,99.90
2017-11-01T06:29:04.590Z,99.90
2017-11-01T06:31:32.835Z,99.90
2017-11-01T06:34:00.309Z,99.90
2017-11-01T06:36:27.778Z,99.90
2017-11-01T06:38:56.027Z,99.90
2017-11-01T06:41:23.500Z,99.90
2017-11-01T06:43:50.982Z,99.90
2017-11-01T06:46:19.240Z,99.90
2017-11-01T06:48:47.485Z,99.90
2017-11-01T06:51:14.963Z,99.90
2017-11-01T06:53:42.443Z,99.90
2017-11-01T06:56:10.691Z,99.90
2017-11-01T06:58:38.184Z,99.90
2017-11-01T07:01:06.494Z,99.90
2017-11-01T07:03:33.978Z,99.90
2017-11-01T07:06:03.968Z,99.90
2017-11-01T07:08:31.464Z,99.90
2017-11-01T07:10:58.954Z,99.90
2017-11-01T07:13:27.203Z,99.90
2017-11-01T07:15:54.689Z,99.90
2017-11-01T07:18:22.943Z,99.90
2017-11-01T07:20:50.431Z,99.90
2017-11-01T07:23:18.675Z,99.90
2017-11-01T07:25:46.158Z,99.90
2017-11-01T07:28:14.412Z,99.90
2017-11-01T07:30:41.886Z,99.90
2017-11-01T07:33:09.376Z,99.90
2017-11-01T07:35:36.862Z,99.90
2017-11-01T07:38:04.366Z,99.90
2017-11-01T07:40:32.631Z,99.90
2017-11-01T07:43:00.117Z,99.90
2017-11-01T07:45:28.378Z,99.90
2017-11-01T07:47:56.621Z,99.90
2017-11-01T07:50:24.108Z,99.90
2017-11-01T07:52:51.603Z,99.90
2017-11-01T07:55:19.095Z,99.90
2017-11-01T07:57:46.594Z,99.90
2017-11-01T08:00:14.846Z,99.90
2017-11-01T08:02:43.126Z,99.90
2017-11-01T08:05:10.614Z,99.90
2017-11-01T08:07:38.887Z,99.90
2017-11-01T08:10:07.142Z,99.90
2017-11-01T08:12:34.648Z,99.90
2017-11-01T08:15:02.128Z,99.90
2017-11-01T08:17:29.614Z,99.90
2017-11-01T08:19:57.094Z,99.90
2017-11-01T08:22:25.337Z,99.90
2017-11-01T08:24:52.818Z,99.90
2017-11-01T08:27:20.307Z,99.90
2017-11-01T08:29:47.806Z,99.90
2017-11-01T08:32:15.297Z,99.00
2017-11-01T08:34:42.791Z,99.90
2017-11-01T08:37:10.299Z,97.20
2017-11-01T08:39:37.795Z,98.30
2017-11-01T08:42:06.051Z,96.60
2017-11-01T08:44:33.544Z,96.50
2017-11-01T08:47:01.027Z,98.10
2017-11-01T08:49:28.581Z,98.80
2017-11-01T08:51:57.043Z,99.50
2017-11-01T08:54:25.139Z,99.30
2017-11-01T08:56:53.734Z,99.10
2017-11-01T08:59:21.693Z,98.40
2017-11-01T09:01:50.790Z,97.30
2017-11-01T09:04:18.789Z,97.80
2017-11-01T09:06:46.802Z,98.60
2017-11-01T09:09:15.626Z,97.90
2017-11-01T09:11:43.642Z,97.90
2017-11-01T09:14:11.625Z,97.70
2017-11-01T09:16:40.769Z,96.70
2017-11-01T09:19:08.691Z,96.70
2017-11-01T09:21:36.942Z,96.80
2017-11-01T09:24:04.440Z,96.80
2017-11-01T09:26:32.835Z,95.80
2017-11-01T09:29:00.337Z,95.80
2017-11-01T09:31:28.604Z,97.60
2017-11-01T09:33:56.224Z,97.60
2017-11-01T09:36:23.872Z,97.60
2017-11-01T09:38:52.444Z,99.90
2017-11-01T09:41:21.241Z,96.60
2017-11-01T09:43:50.093Z,96.40
2017-11-01T09:46:17.915Z,96.70
2017-11-01T09:48:46.697Z,95.00
2017-11-01T09:51:15.574Z,95.50
2017-11-01T09:53:44.595Z,96.50
2017-11-01T09:56:12.513Z,96.50
2017-11-01T09:58:40.002Z,96.70
2017-11-01T10:01:08.266Z,97.70
2017-11-01T10:03:36.522Z,94.70
2017-11-01T10:06:04.010Z,94.70
2017-11-01T10:08:31.510Z,96.60
2017-11-01T10:10:59.074Z,95.90
2017-11-01T10:13:26.564Z,97.20
2017-11-01T10:15:54.069Z,98.40
2017-11-01T10:18:22.337Z,95.70
2017-11-01T10:20:50.655Z,96.80
2017-11-01T10:23:18.222Z,96.90
2017-11-01T10:25:46.077Z,97.80
2017-11-01T10:28:14.233Z,99.30
2017-11-01T10:30:44.267Z,99.20
2017-11-01T10:33:12.212Z,99.10
2017-11-01T10:35:41.220Z,99.10
2017-11-01T10:38:09.189Z,99.10
2017-11-01T10:40:36.935Z,98.40
2017-11-01T10:43:05.417Z,98.60
2017-11-01T10:45:32.981Z,98.50
2017-11-01T10:48:01.333Z,97.80
2017-11-01T10:50:28.886Z,97.70
2017-11-01T10:52:56.459Z,97.80
2017-11-01T10:55:25.208Z,97.80
2017-11-01T10:57:53.489Z,98.10
2017-11-01T11:00:21.639Z,99.60
2017-11-01T11:02:49.277Z,97.10
2017-11-01T11:05:17.726Z,99.40
2017-11-01T11:07:45.299Z,99.40
2017-11-01T11:10:12.916Z,99.00
2017-11-01T11:12:40.482Z,99.90
2017-11-01T11:15:07.986Z,99.90
2017-11-01T11:17:35.473Z,99.90
2017-11-01T11:20:03.779Z,98.40
2017-11-01T11:22:31.375Z,98.40
2017-11-01T11:24:59.010Z,99.10
2017-11-01T11:27:26.493Z,96.60
2017-11-01T11:29:54.098Z,99.90
2017-11-01T11:32:22.695Z,99.90
2017-11-01T11:34:50.205Z,99.90
2017-11-01T11:37:17.779Z,97.60
2017-11-01T11:39:45.286Z,99.90
2017-11-01T11:42:12.855Z,99.90
2017-11-01T11:44:40.343Z,97.10
2017-11-01T11:47:07.882Z,99.90
2017-11-01T11:49:35.366Z,98.50
2017-11-01T11:52:02.859Z,97.50
2017-11-01T11:54:31.124Z,99.90
2017-11-01T11:56:59.384Z,96.80
2017-11-01T11:59:26.939Z,96.90
2017-11-01T12:01:55.375Z,95.10
2017-11-01T12:04:23.006Z,95.70
2017-11-01T12:06:51.418Z,94.70
2017-11-01T12:09:19.514Z,94.70
2017-11-01T12:11:47.928Z,94.60
2017-11-01T12:14:15.773Z,94.20
2017-11-01T12:16:44.566Z,95.90
2017-11-01T12:19:12.097Z,96.20
2017-11-01T12:21:39.930Z,94.60
2017-11-01T12:24:08.309Z,94.40
2017-11-01T12:26:37.378Z,94.10
2017-11-01T12:29:05.099Z,94.10
2017-11-01T12:31:33.164Z,96.70
2017-11-01T12:34:02.214Z,97.90
2017-11-01T12:36:30.255Z,97.90
2017-11-01T12:38:58.177Z,95.90
2017-11-01T12:41:28.260Z,99.90
2017-11-01T12:43:56.451Z,99.90
2017-11-01T12:46:24.482Z,92.40
2017-11-01T12:48:52.406Z,91.90
2017-11-01T12:51:20.652Z,79.20
2017-11-01T12:53:48.210Z,79.20
2017-11-01T12:56:15.686Z,89.40
2017-11-01T12:58:43.166Z,89.00
2017-11-01T13:01:11.422Z,85.50
2017-11-01T13:03:39.687Z,86.60
2017-11-01T13:06:07.311Z,86.60
2017-11-01T13:08:34.811Z,88.20
2017-11-01T13:11:02.295Z,99.70
2017-11-01T13:13:30.549Z,80.90
2017-11-01T13:15:58.048Z,80.80
2017-11-01T13:18:26.302Z,77.10
2017-11-01T13:20:54.583Z,89.80
2017-11-01T13:23:22.835Z,83.00
2017-11-01T13:25:50.317Z,81.90
2017-11-01T13:28:18.580Z,84.10
2017-11-01T13:30:46.066Z,83.80
2017-11-01T13:33:14.337Z,87.80
2017-11-01T13:35:42.607Z,83.30
2017-11-01T13:38:10.857Z,86.30
2017-11-01T13:40:38.338Z,85.90
2017-11-01T13:43:05.837Z,87.90
2017-11-01T13:45:33.313Z,92.60
2017-11-01T13:48:00.814Z,89.20
2017-11-01T13:50:28.293Z,88.40
2017-11-01T13:52:56.556Z,87.00
2017-11-01T13:55:24.817Z,82.20
2017-11-01T13:57:52.345Z,82.00
2017-11-01T14:00:19.835Z,80.10
2017-11-01T14:02:47.334Z,82.30
2017-11-01T14:05:29.032Z,87.00
2017-11-01T14:07:56.592Z,87.00
2017-11-01T14:10:24.096Z,94.20
2017-11-01T14:12:51.591Z,91.90
2017-11-01T14:15:19.857Z,83.20
2017-11-01T14:17:47.345Z,83.10
2017-11-01T14:20:14.846Z,89.10
2017-11-01T14:22:42.345Z,92.70
2017-11-01T14:25:10.594Z,82.30
2017-11-01T14:27:38.105Z,81.90
2017-11-01T14:30:05.615Z,93.10
2017-11-01T14:32:33.125Z,91.00
2017-11-01T14:35:00.627Z,82.60
2017-11-01T14:37:28.128Z,83.50
2017-11-01T14:39:56.390Z,86.70
2017-11-01T14:42:24.637Z,84.10
2017-11-01T14:44:52.140Z,83.80
2017-11-01T14:47:20.395Z,80.50
2017-11-01T14:49:47.877Z,80.30
2017-11-01T14:52:16.469Z,85.20
2017-11-01T14:54:44.163Z,85.10
2017-11-01T14:57:12.052Z,88.10
2017-11-01T14:59:40.144Z,91.00
2017-11-01T15:02:08.167Z,91.00
2017-11-01T15:04:35.880Z,88.80
2017-11-01T15:07:03.368Z,87.20
2017-11-01T15:09:31.400Z,81.50
2017-11-01T15:12:00.482Z,90.90
2017-11-01T15:14:29.289Z,90.90
2017-11-01T15:16:57.607Z,86.10
2017-11-01T15:19:25.866Z,87.60
2017-11-01T15:21:54.687Z,84.90
2017-11-01T15:24:22.505Z,84.80
2017-11-01T15:26:51.630Z,85.40
2017-11-01T15:29:20.780Z,85.60
2017-11-01T15:31:48.797Z,85.60
2017-11-01T15:34:17.777Z,89.40
2017-11-01T15:36:46.505Z,88.00
2017-11-01T15:39:14.575Z,88.20
2017-11-01T15:41:50.783Z,88.40
2017-11-01T15:44:18.721Z,87.80
2017-11-01T15:46:46.269Z,88.50
2017-11-01T15:49:13.809Z,88.00
2017-11-01T15:51:41.410Z,88.30
2017-11-01T15:54:08.937Z,89.00
2017-11-01T15:56:36.434Z,89.40
2017-11-01T15:59:03.970Z,88.60
2017-11-01T16:01:31.498Z,89.10
2017-11-01T16:03:59.763Z,90.10
2017-11-01T16:06:27.295Z,90.00
2017-11-01T16:08:54.867Z,90.30
2017-11-01T16:11:22.613Z,90.10
2017-11-01T16:13:50.960Z,90.10
2017-11-01T16:16:18.575Z,90.10
2017-11-01T16:18:46.389Z,90.40
2017-11-01T16:21:13.985Z,90.90
2017-11-01T16:23:41.806Z,90.80
2017-11-01T16:26:10.090Z,91.00
2017-11-01T16:28:37.585Z,91.00
2017-11-01T16:31:05.078Z,90.80
2017-11-01T16:33:32.595Z,91.50
2017-11-01T16:36:00.123Z,92.30
2017-11-01T16:38:27.824Z,93.20
2017-11-01T16:40:55.384Z,93.20
2017-11-01T16:43:23.027Z,93.50
2017-11-01T16:45:50.609Z,93.50
2017-11-01T16:48:18.119Z,93.60
2017-11-01T16:50:46.371Z,93.90
2017-11-01T16:53:13.963Z,93.90
2017-11-01T16:55:42.237Z,93.50
2017-11-01T16:58:10.576Z,93.40
2017-11-01T17:00:38.326Z,93.40
2017-11-01T17:03:06.085Z,92.70
2017-11-01T17:05:34.066Z,92.80
2017-11-01T17:08:02.080Z,92.80
2017-11-01T17:10:31.117Z,93.40
2017-11-01T17:12:58.873Z,93.10
2017-11-01T17:15:27.360Z,93.20
2017-11-01T17:17:55.094Z,93.60
2017-11-01T17:20:23.640Z,93.50
2017-11-01T17:22:51.769Z,93.50
2017-11-01T17:25:19.764Z,93.90
2017-11-01T17:27:47.684Z,94.10
2017-11-01T17:30:16.629Z,94.20
2017-11-01T17:32:44.857Z,94.20
2017-11-01T17:35:13.893Z,94.40
2017-11-01T17:37:41.904Z,94.40
2017-11-01T17:40:10.162Z,94.50
2017-11-01T17:42:38.281Z,94.70
2017-11-01T17:45:08.071Z,95.20
2017-11-01T17:47:36.614Z,95.10
2017-11-01T17:50:04.286Z,95.40
2017-11-01T17:52:32.309Z,95.30
2017-11-01T17:55:01.540Z,95.60
2017-11-01T17:57:29.175Z,95.60
2017-11-01T17:59:57.754Z,95.60
2017-11-01T18:02:26.523Z,95.70
2017-11-01T18:04:54.479Z,95.70
2017-11-01T18:07:22.640Z,95.80
2017-11-01T18:09:51.208Z,95.90
2017-11-01T18:12:19.899Z,95.70
2017-11-01T18:14:47.763Z,95.70
2017-11-01T18:17:16.902Z,95.70
2017-11-01T18:19:44.931Z,96.00
2017-11-01T18:22:12.534Z,96.30
2017-11-01T18:24:41.529Z,96.80
2017-11-01T18:27:10.966Z,97.00
2017-11-01T18:29:40.116Z,98.00
2017-11-01T18:32:08.065Z,97.90
2017-11-01T18:34:36.080Z,97.90
2017-11-01T18:37:05.741Z,99.10
2017-11-01T18:39:33.603Z,99.10
2017-11-01T18:42:02.447Z,96.20
2017-11-01T18:44:30.935Z,97.20
2017-11-01T18:46:58.750Z,97.20
2017-11-01T18:49:27.027Z,97.20
2017-11-01T18:51:55.233Z,98.20
2017-11-01T18:54:23.358Z,98.40
2017-11-01T18:56:51.141Z,98.30
2017-11-01T18:59:19.635Z,98.80
2017-11-01T19:01:48.096Z,98.70
2017-11-01T19:04:15.738Z,99.00
2017-11-01T19:06:44.152Z,99.70
2017-11-01T19:09:12.182Z,99.60
2017-11-01T19:11:40.880Z,99.00
2017-11-01T19:14:09.830Z,98.80
2017-11-01T19:16:37.687Z,98.80
2017-11-01T19:19:07.119Z,98.90
2017-11-01T19:21:35.995Z,99.50
2017-11-01T19:24:04.957Z,99.40
2017-11-01T19:26:32.846Z,99.60
2017-11-01T19:29:01.790Z,99.70
2017-11-01T19:31:31.017Z,99.90
2017-11-01T19:34:00.050Z,99.90
2017-11-01T19:36:31.199Z,99.60
2017-11-01T19:38:59.248Z,99.40
2017-11-01T19:41:27.225Z,99.60
2017-11-01T19:43:55.187Z,99.90
2017-11-01T19:46:24.078Z,99.50
2017-11-01T19:48:51.889Z,99.80
2017-11-01T19:51:23.780Z,99.90
2017-11-01T19:53:51.973Z,99.90
2017-11-01T19:56:21.843Z,99.90
2017-11-01T19:58:50.349Z,99.90
2017-11-01T20:01:18.196Z,99.90
2017-11-01T20:03:47.888Z,99.90
2017-11-01T20:06:17.203Z,99.70
2017-11-01T20:08:46.591Z,99.60
2017-11-01T20:11:14.324Z,99.50
2017-11-01T20:13:43.370Z,99.90
2017-11-01T20:16:12.050Z,99.90
2017-11-01T20:18:40.071Z,99.90
2017-11-01T20:21:08.960Z,99.90
2017-11-01T20:23:37.755Z,99.80
2017-11-01T20:26:06.189Z,99.70
2017-11-01T20:28:35.202Z,99.50
2017-11-01T20:31:04.384Z,99.40
2017-11-01T20:33:33.819Z,99.90
2017-11-01T20:36:02.981Z,99.90
2017-11-01T20:38:35.645Z,99.80
2017-11-01T20:41:05.473Z,99.80
2017-11-01T20:43:33.373Z,99.60
2017-11-01T20:46:02.137Z,99.90
2017-11-01T20:48:30.587Z,99.90
2017-11-01T20:51:00.404Z,99.90
2017-11-01T20:53:30.114Z,99.90
2017-11-01T20:55:58.409Z,99.90
2017-11-01T20:58:28.745Z,99.90
2017-11-01T21:00:57.643Z,99.90
2017-11-01T21:03:27.369Z,99.90
2017-11-01T21:05:57.458Z,99.80
2017-11-01T21:08:25.493Z,99.70
2017-11-01T21:10:53.561Z,99.90
2017-11-01T21:13:22.712Z,99.90
2017-11-01T21:15:52.547Z,99.90
2017-11-01T21:18:20.313Z,99.90
2017-11-01T21:20:48.519Z,99.90
2017-11-01T21:23:17.071Z,99.70
2017-11-01T21:25:46.863Z,99.50
2017-11-01T21:28:16.133Z,99.70
2017-11-01T21:30:45.112Z,99.70
2017-11-01T21:33:13.454Z,99.90
2017-11-01T21:35:44.202Z,99.90
2017-11-01T21:38:13.875Z,99.90
2017-11-01T21:40:42.946Z,99.90
2017-11-01T21:43:12.424Z,99.90
2017-11-01T21:45:41.109Z,99.90
2017-11-01T21:48:09.323Z,99.50
2017-11-01T21:50:38.284Z,99.30
2017-11-01T21:53:06.878Z,99.20
2017-11-01T21:55:35.049Z,99.60
2017-11-01T21:58:03.649Z,98.90
2017-11-01T22:00:32.222Z,99.10
2017-11-01T22:03:00.235Z,99.10
2017-11-01T22:05:29.099Z,99.90
2017-11-01T22:07:56.643Z,99.90
2017-11-01T22:10:25.112Z,99.90
2017-11-01T22:12:53.580Z,99.90
2017-11-01T22:15:21.861Z,99.90
2017-11-01T22:17:49.706Z,99.90
2017-11-01T22:20:18.635Z,99.90
2017-11-01T22:22:47.439Z,99.80
2017-11-01T22:25:15.801Z,99.80
2017-11-01T22:27:43.898Z,99.90
2017-11-01T22:30:11.725Z,99.90
2017-11-01T22:32:39.708Z,99.90
2017-11-01T22:35:08.126Z,99.90
2017-11-01T22:37:37.191Z,99.90
2017-11-01T22:40:04.886Z,99.90
2017-11-01T22:42:34.826Z,99.90
2017-11-01T22:45:03.884Z,99.50
2017-11-01T22:47:31.513Z,99.40
2017-11-01T22:49:59.230Z,99.20
2017-11-01T22:52:27.566Z,99.00
2017-11-01T22:54:56.426Z,99.00
2017-11-01T22:57:25.030Z,99.10
2017-11-01T22:59:54.521Z,99.10
2017-11-01T23:02:22.626Z,99.40
2017-11-01T23:04:50.549Z,99.80
2017-11-01T23:07:18.774Z,99.90
2017-11-01T23:09:46.969Z,99.90
2017-11-01T23:12:15.097Z,99.90
2017-11-01T23:14:51.546Z,99.90
2017-11-01T23:17:19.973Z,99.90
2017-11-01T23:19:48.441Z,99.90
2017-11-01T23:22:16.248Z,99.90
2017-11-01T23:24:43.942Z,99.90
2017-11-01T23:27:12.878Z,99.90
2017-11-01T23:29:40.768Z,99.90
2017-11-01T23:32:08.883Z,99.90
2017-11-01T23:34:37.263Z,99.70
2017-11-01T23:37:06.030Z,99.30
2017-11-01T23:39:34.634Z,99.20
2017-11-01T23:42:02.959Z,98.70
2017-11-01T23:44:31.078Z,98.60
2017-11-01T23:46:59.854Z,99.00
2017-11-01T23:49:27.576Z,99.00
2017-11-01T23:51:55.341Z,99.50
2017-11-01T23:54:23.317Z,99.90
2017-11-01T23:56:51.264Z,99.90
2017-11-01T23:59:19.758Z,99.90
